createdAt,value
2022-11-05T00:04:02.998Z,15.47
2022-11-05T00:09:18.045Z,15.17
2022-11-05T00:14:42.547Z,15.50
2022-11-05T00:19:47.751Z,19.17
2022-11-05T00:25:10.717Z,23.60
2022-11-05T00:30:18.635Z,19.93
2022-11-05T00:35:27.202Z,19.07
2022-11-05T00:40:33.430Z,15.43
2022-11-05T00:45:38.703Z,17.87
2022-11-05T00:50:46.141Z,15.43
2022-11-05T00:55:51.340Z,15.07
2022-11-05T01:01:02.106Z,22.53
2022-11-05T01:06:14.348Z,21.23
2022-11-05T01:11:34.368Z,12.63
2022-11-05T01:16:42.040Z,16.23
2022-11-05T01:21:48.254Z,17.17
2022-11-05T01:26:57.230Z,16.37
2022-11-05T01:32:02.941Z,20.60
2022-11-05T01:37:08.254Z,18.00
2022-11-05T01:42:23.977Z,26.77
2022-11-05T01:47:41.605Z,21.03
2022-11-05T01:52:51.000Z,16.93
2022-11-05T01:57:59.945Z,19.27
2022-11-05T02:03:06.423Z,16.00
2022-11-05T02:08:15.462Z,18.23
2022-11-05T02:13:25.031Z,22.47
2022-11-05T02:18:49.074Z,20.47
2022-11-05T02:24:26.220Z,20.03
2022-11-05T02:29:54.436Z,20.50
2022-11-05T02:35:36.381Z,17.17
2022-11-05T02:41:02.786Z,18.40
2022-11-05T02:46:30.141Z,14.60
2022-11-05T02:51:41.356Z,22.53
2022-11-05T02:56:53.091Z,22.90
2022-11-05T03:02:02.649Z,13.80
2022-11-05T03:07:33.059Z,14.93
2022-11-05T03:12:49.440Z,18.73
2022-11-05T03:18:16.554Z,17.60
2022-11-05T03:23:40.117Z,13.27
2022-11-05T03:28:54.012Z,15.93
2022-11-05T03:34:04.444Z,16.20
2022-11-05T03:39:13.847Z,15.60
2022-11-05T03:44:26.209Z,15.20
2022-11-05T03:49:43.366Z,14.13
2022-11-05T03:54:48.745Z,20.13
2022-11-05T03:59:54.145Z,15.67
2022-11-05T04:04:59.417Z,11.07
2022-11-05T04:10:27.511Z,12.40
2022-11-05T04:15:36.613Z,19.87
2022-11-05T04:20:59.404Z,15.03
2022-11-05T04:26:04.654Z,15.57
2022-11-05T04:31:09.731Z,12.63
2022-11-05T04:36:15.986Z,14.70
2022-11-05T04:41:29.500Z,13.53
2022-11-05T04:47:00.760Z,16.27
2022-11-05T04:52:18.354Z,13.70
2022-11-05T04:57:28.018Z,18.60
2022-11-05T05:02:37.403Z,16.83
2022-11-05T05:07:45.150Z,19.70
2022-11-05T05:12:50.470Z,17.30
2022-11-05T05:17:56.520Z,23.07
2022-11-05T05:23:07.235Z,16.63
2022-11-05T05:28:28.938Z,19.67
2022-11-05T05:33:36.791Z,15.60
2022-11-05T05:38:55.705Z,12.83
2022-11-05T05:44:06.472Z,14.87
2022-11-05T05:49:12.864Z,18.70
2022-11-05T05:54:18.692Z,19.23
2022-11-05T05:59:23.976Z,17.37
2022-11-05T06:04:29.141Z,18.57
2022-11-05T06:09:34.628Z,19.33
2022-11-05T06:14:39.673Z,17.20
2022-11-05T06:19:44.809Z,14.43
2022-11-05T06:24:50.510Z,16.43
2022-11-05T06:29:56.853Z,16.53
2022-11-05T06:35:03.919Z,18.37
2022-11-05T06:40:14.844Z,18.07
2022-11-05T06:45:20.149Z,24.40
2022-11-05T06:50:26.772Z,28.80
2022-11-05T06:55:32.975Z,19.13
2022-11-05T07:00:38.367Z,20.07
2022-11-05T07:05:46.686Z,15.47
2022-11-05T07:10:51.839Z,17.87
2022-11-05T07:15:57.172Z,16.20
2022-11-05T07:21:02.379Z,12.50
2022-11-05T07:26:08.812Z,12.30
2022-11-05T07:31:16.865Z,14.60
2022-11-05T07:36:22.118Z,15.73
2022-11-05T07:41:29.446Z,14.60
2022-11-05T07:46:35.910Z,15.20
2022-11-05T07:51:41.595Z,15.83
2022-11-05T07:57:01.181Z,21.00
2022-11-05T08:02:16.151Z,13.17
2022-11-05T08:07:23.236Z,13.63
2022-11-05T08:12:28.856Z,10.30
2022-11-05T08:17:37.956Z,15.60
2022-11-05T08:22:49.432Z,14.13
2022-11-05T08:28:00.765Z,10.43
2022-11-05T08:33:12.392Z,14.20
2022-11-05T08:38:20.448Z,9.07
2022-11-05T08:43:26.954Z,9.40
2022-11-05T08:48:33.894Z,14.50
2022-11-05T08:53:39.424Z,11.07
2022-11-05T08:58:44.644Z,11.10
2022-11-05T09:03:52.194Z,5.70
2022-11-05T09:08:57.537Z,11.33
2022-11-05T09:14:02.656Z,6.53
2022-11-05T09:19:08.027Z,6.77
2022-11-05T09:24:15.471Z,6.57
2022-11-05T09:29:22.691Z,4.57
2022-11-05T09:34:28.167Z,5.53
2022-11-05T09:39:33.553Z,25.23
2022-11-05T09:44:44.751Z,5.03
2022-11-05T09:49:53.249Z,4.27
2022-11-05T09:55:07.295Z,5.77
2022-11-05T10:00:18.503Z,6.77
2022-11-05T10:05:26.060Z,12.80
2022-11-05T10:10:54.398Z,6.30
2022-11-05T10:16:20.614Z,6.40
2022-11-05T15:19:49.048Z,4.27
2022-11-05T15:24:54.643Z,12.10
2022-11-05T15:30:03.061Z,4.33
2022-11-05T15:35:27.349Z,3.60
2022-11-05T15:40:34.145Z,9.87
2022-11-05T15:45:40.549Z,3.40
2022-11-05T15:50:46.258Z,6.23
2022-11-05T15:55:54.868Z,4.87
2022-11-05T16:01:04.268Z,7.10
2022-11-05T16:06:10.938Z,6.80
2022-11-05T16:11:23.168Z,3.23
2022-11-05T16:16:43.792Z,10.37
2022-11-05T16:21:56.247Z,3.87
2022-11-05T16:27:13.037Z,7.50
2022-11-05T16:32:36.604Z,12.00
2022-11-05T16:37:49.169Z,9.80
2022-11-05T16:42:55.219Z,7.17
2022-11-05T16:48:13.880Z,6.07
2022-11-05T16:53:25.402Z,8.93
2022-11-05T16:58:36.950Z,12.30
2022-11-05T17:03:49.118Z,8.17
2022-11-05T17:09:06.251Z,6.17
2022-11-05T17:14:24.653Z,17.80
2022-11-05T17:19:37.069Z,6.40
2022-11-05T17:24:47.572Z,8.97
2022-11-05T17:30:04.055Z,10.33
2022-11-05T17:46:31.995Z,8.93
2022-11-05T17:52:12.077Z,11.10
2022-11-05T17:57:32.236Z,11.97
2022-11-05T18:02:46.636Z,6.03
2022-11-05T18:08:02.820Z,10.47
2022-11-05T18:13:08.964Z,8.20
2022-11-05T18:18:19.843Z,10.03
2022-11-05T18:23:22.539Z,11.17
2022-11-05T18:28:42.547Z,10.57
2022-11-05T18:33:46.210Z,6.30
2022-11-05T18:38:58.260Z,11.70
2022-11-05T18:44:05.528Z,21.50
2022-11-05T18:49:15.455Z,16.00
2022-11-05T18:54:20.958Z,25.37
2022-11-05T18:59:41.694Z,23.10
2022-11-05T19:04:38.136Z,13.30
2022-11-05T19:09:43.511Z,6.97
2022-11-05T19:14:48.832Z,7.97
2022-11-05T19:19:55.510Z,6.00
2022-11-05T19:25:01.761Z,19.23
2022-11-05T19:30:08.090Z,15.67
2022-11-05T19:35:13.394Z,13.13
2022-11-05T19:40:25.482Z,7.93
2022-11-05T19:45:44.246Z,14.97
2022-11-05T19:50:42.680Z,9.07
2022-11-05T19:55:47.881Z,7.03
2022-11-05T20:00:54.848Z,8.27
2022-11-05T20:06:05.606Z,15.80
2022-11-05T20:11:11.097Z,19.63
2022-11-05T20:16:22.312Z,15.87
2022-11-05T20:21:27.659Z,26.37
2022-11-05T20:26:33.020Z,35.93
2022-11-05T20:31:38.192Z,27.03
2022-11-05T20:36:43.661Z,51.60
2022-11-05T20:41:49.088Z,42.97
2022-11-05T20:46:54.301Z,61.60
2022-11-05T20:51:59.637Z,64.70
2022-11-05T20:57:04.948Z,79.20
2022-11-05T21:02:12.927Z,51.53
2022-11-05T21:07:18.269Z,49.13
2022-11-05T21:12:23.490Z,51.57
2022-11-05T21:17:28.753Z,51.13
2022-11-05T21:22:34.058Z,62.13
2022-11-05T21:27:43.450Z,57.50
2022-11-05T21:32:46.049Z,34.90
2022-11-05T21:37:51.192Z,19.13
2022-11-05T21:42:56.320Z,24.50
2022-11-05T21:48:01.716Z,23.17
2022-11-05T21:53:25.668Z,28.20
2022-11-05T21:58:48.556Z,25.70
2022-11-05T22:03:56.518Z,19.23
2022-11-05T22:09:00.825Z,25.67
2022-11-05T22:14:05.912Z,17.37
2022-11-05T22:19:11.441Z,30.30
2022-11-05T22:24:17.378Z,28.13
2022-11-05T22:29:23.306Z,35.80
2022-11-05T22:34:28.655Z,31.03
2022-11-05T22:39:33.859Z,32.43
2022-11-05T22:44:39.023Z,34.63
2022-11-05T22:49:45.523Z,40.63
2022-11-05T22:54:51.506Z,33.47
2022-11-05T22:59:56.803Z,45.67
2022-11-05T23:05:01.983Z,37.23
2022-11-05T23:10:12.393Z,44.83
2022-11-05T23:15:35.561Z,29.13
2022-11-05T23:20:58.537Z,45.57
2022-11-05T23:26:05.386Z,29.67
2022-11-05T23:31:28.740Z,33.73
2022-11-05T23:36:52.055Z,39.43
2022-11-05T23:42:15.468Z,34.83
2022-11-05T23:47:38.504Z,38.80
2022-11-05T23:52:43.885Z,28.13
2022-11-05T23:57:50.252Z,28.30
